createdAt,value
2022-10-28T05:33:32.428Z,39.40
2022-10-28T05:36:03.142Z,36.17
2022-10-28T05:38:29.864Z,42.13
2022-10-28T05:40:56.620Z,39.00
2022-10-28T05:43:23.477Z,35.05
2022-10-28T05:45:57.403Z,36.90
2022-10-28T05:48:25.136Z,29.80
2022-10-28T05:50:51.900Z,30.48
2022-10-28T05:53:18.705Z,28.50
2022-10-28T05:55:47.785Z,32.97
2022-10-28T05:58:15.453Z,36.60
2022-10-28T06:00:42.309Z,29.05
2022-10-28T06:03:12.178Z,30.83
2022-10-28T06:05:44.288Z,31.85
2022-10-28T06:08:12.533Z,30.25
2022-10-28T06:10:40.030Z,29.75
2022-10-28T06:13:06.660Z,32.97
2022-10-28T06:15:34.574Z,30.25
2022-10-28T06:18:05.048Z,32.38
2022-10-28T06:20:32.027Z,34.75
2022-10-28T06:22:58.658Z,31.02
2022-10-28T06:25:25.942Z,32.88
2022-10-28T06:27:57.374Z,34.85
2022-10-28T06:30:27.973Z,32.20
2022-10-28T06:32:57.722Z,34.85
2022-10-28T06:35:24.371Z,31.88
2022-10-28T06:37:56.765Z,32.78
2022-10-28T06:40:24.759Z,32.42
2022-10-28T06:43:05.615Z,30.17
2022-10-28T06:45:33.548Z,28.40
2022-10-28T06:48:05.738Z,30.15
2022-10-28T06:50:35.296Z,33.13
2022-10-28T06:53:03.357Z,29.90
2022-10-28T06:55:30.662Z,28.75
2022-10-28T06:58:02.089Z,30.33
2022-10-28T07:02:59.467Z,27.02
2022-10-28T07:05:27.872Z,28.55
2022-10-28T07:07:55.150Z,26.83
2022-10-28T07:10:22.336Z,24.33
2022-10-28T07:12:49.143Z,23.85
2022-10-28T07:15:16.093Z,28.52
2022-10-28T07:17:42.966Z,25.33
2022-10-28T07:20:10.481Z,23.73
2022-10-28T07:22:37.185Z,25.08
2022-10-28T07:25:04.505Z,21.52
2022-10-28T07:27:31.201Z,27.70
2022-10-28T07:29:57.966Z,26.33
2022-10-28T07:32:31.756Z,26.40
2022-10-28T07:37:25.352Z,21.48
2022-10-28T07:39:52.067Z,26.15
2022-10-28T07:42:18.886Z,26.80
2022-10-28T07:44:48.215Z,26.52
2022-10-28T07:47:15.014Z,28.42
2022-10-28T07:49:44.722Z,27.70
2022-10-28T07:52:11.416Z,28.23
2022-10-28T07:54:38.242Z,26.98
2022-10-28T07:57:05.040Z,29.55
2022-10-28T07:59:34.274Z,29.15
2022-10-28T08:02:01.034Z,26.60
2022-10-28T08:04:30.996Z,28.02
2022-10-28T08:06:58.138Z,28.33
2022-10-28T08:09:25.358Z,27.50
2022-10-28T08:11:56.046Z,21.80
2022-10-28T08:14:22.892Z,25.50
2022-10-28T08:16:49.524Z,25.92
2022-10-28T08:19:16.161Z,26.80
2022-10-28T08:21:42.885Z,25.20
2022-10-28T08:24:09.865Z,26.98
2022-10-28T08:26:36.592Z,27.17
2022-10-28T08:29:09.511Z,25.67
2022-10-28T08:31:36.244Z,26.50
2022-10-28T08:34:06.392Z,28.10
2022-10-28T08:36:34.654Z,27.55
2022-10-28T08:39:02.167Z,29.35
2022-10-28T08:41:42.731Z,28.10
2022-10-28T08:44:34.984Z,29.05
2022-10-28T08:47:22.673Z,28.17
2022-10-28T08:49:58.290Z,24.92
2022-10-28T08:52:33.939Z,27.65
2022-10-28T08:55:12.624Z,28.67
2022-10-28T08:57:46.256Z,30.80
2022-10-28T09:00:23.012Z,30.15
2022-10-28T09:03:12.586Z,30.40
2022-10-28T09:05:41.437Z,29.35
2022-10-28T09:08:26.653Z,29.60
2022-10-28T09:11:04.954Z,27.80
2022-10-28T09:13:58.993Z,28.55
2022-10-28T09:16:45.665Z,28.25
2022-10-28T09:19:36.302Z,28.95
2022-10-28T09:22:20.788Z,26.70
2022-10-28T09:25:10.993Z,25.15
2022-10-28T09:28:05.618Z,26.35
2022-10-28T09:33:35.735Z,31.17
2022-10-28T09:36:05.652Z,30.02
2022-10-28T09:38:37.253Z,32.30
2022-10-28T09:41:13.321Z,30.33
2022-10-28T09:43:50.039Z,31.17
2022-10-28T09:46:18.674Z,30.38
2022-10-28T09:49:11.253Z,32.28
2022-10-28T09:51:52.962Z,27.85
2022-10-28T09:54:27.955Z,29.05
2022-10-28T09:56:57.559Z,32.88
2022-10-28T09:59:26.196Z,31.45
2022-10-28T10:01:56.767Z,28.13
2022-10-28T10:04:25.698Z,30.45
2022-10-28T10:07:03.682Z,33.00
2022-10-28T10:09:33.376Z,34.22
2022-10-28T10:12:05.390Z,33.75
2022-10-28T10:14:39.147Z,32.28
2022-10-28T10:17:17.204Z,28.70
2022-10-28T10:20:10.264Z,31.83
2022-10-28T10:22:40.076Z,29.65
2022-10-28T10:25:18.637Z,31.02
2022-10-28T10:27:56.679Z,33.35
2022-10-28T10:30:29.711Z,34.05
2022-10-28T10:33:00.261Z,32.80
2022-10-28T10:35:37.152Z,35.13
2022-10-28T10:38:08.054Z,32.35
2022-10-28T10:40:50.921Z,33.03
2022-10-28T10:43:19.765Z,34.40
2022-10-28T10:46:13.213Z,31.80
2022-10-28T10:48:40.060Z,30.13
2022-10-28T10:51:18.308Z,29.95
2022-10-28T10:53:49.142Z,32.22
2022-10-28T10:56:27.718Z,31.45
2022-10-28T10:58:57.541Z,34.00
2022-10-28T11:01:33.925Z,30.08
2022-10-28T11:04:06.421Z,27.00
2022-10-28T11:06:38.583Z,26.00
2022-10-28T11:09:16.785Z,30.45
2022-10-28T11:11:44.086Z,24.48
2022-10-28T11:14:10.764Z,27.48
2022-10-28T11:16:51.168Z,26.80
2022-10-28T11:19:22.100Z,25.92
2022-10-28T11:22:07.329Z,24.38
2022-10-28T11:25:01.234Z,26.05
2022-10-28T11:27:48.596Z,27.67
2022-10-28T11:30:27.274Z,21.27
2022-10-28T11:33:28.303Z,28.13
2022-10-28T11:36:12.039Z,27.58
2022-10-28T11:38:49.439Z,29.33
2022-10-28T11:41:45.594Z,27.77
2022-10-28T11:44:34.270Z,24.52
2022-10-28T11:47:21.628Z,21.92
2022-10-28T11:49:50.926Z,20.27
2022-10-28T11:52:23.004Z,25.38
2022-10-28T11:55:14.460Z,21.55
2022-10-28T11:57:57.159Z,24.45
2022-10-28T12:01:04.052Z,22.33
2022-10-28T12:03:33.719Z,21.05
2022-10-28T12:06:35.822Z,23.30
2022-10-28T12:09:10.742Z,20.77
2022-10-28T12:12:06.285Z,21.05
2022-10-28T12:14:42.837Z,19.15
2022-10-28T12:17:28.500Z,22.63
2022-10-28T12:20:00.372Z,23.15
2022-10-28T12:22:46.798Z,22.98
2022-10-28T12:25:18.265Z,22.83
2022-10-28T12:27:47.783Z,25.23
2022-10-28T12:30:21.122Z,20.88
2022-10-28T12:33:00.122Z,25.33
2022-10-28T12:36:08.993Z,23.63
2022-10-28T12:38:43.551Z,20.80
2022-10-28T12:41:17.676Z,16.65
2022-10-28T12:43:56.769Z,18.98
2022-10-28T12:46:39.845Z,21.55
2022-10-28T12:49:18.960Z,22.25
2022-10-28T12:51:46.321Z,23.60
2022-10-28T12:54:48.717Z,22.38
2022-10-28T12:57:22.788Z,20.70
2022-10-28T12:59:56.139Z,20.83
2022-10-28T13:02:47.838Z,18.13
2022-10-28T13:05:25.716Z,20.80
2022-10-28T13:07:58.524Z,20.83
2022-10-28T13:10:56.586Z,22.17
2022-10-28T13:13:42.850Z,19.58
2022-10-28T13:16:30.263Z,22.42
2022-10-28T13:19:15.562Z,22.33
2022-10-28T13:22:22.683Z,21.35
2022-10-28T13:25:16.796Z,20.08
2022-10-28T13:27:45.183Z,21.42
2022-10-28T13:30:20.632Z,19.73
2022-10-28T13:33:02.243Z,23.42
2022-10-28T13:35:34.053Z,26.38
2022-10-28T13:38:02.291Z,23.15
2022-10-28T13:40:34.624Z,26.65
2022-10-28T13:43:04.341Z,23.02
2022-10-28T13:45:53.373Z,24.15
2022-10-28T13:48:29.170Z,23.40
2022-10-28T13:51:25.421Z,25.45
2022-10-28T13:53:56.553Z,23.17
2022-10-28T13:56:34.931Z,26.20
2022-10-28T13:59:11.134Z,25.70
2022-10-28T14:02:28.363Z,28.85
2022-10-28T14:05:03.110Z,24.88
2022-10-28T14:07:32.670Z,23.75
2022-10-28T14:10:20.189Z,24.30
2022-10-28T14:13:21.767Z,26.30
2022-10-28T14:15:49.711Z,27.67
2022-10-28T14:18:41.560Z,26.85
2022-10-28T14:21:03.853Z,25.55
2022-10-28T14:23:30.538Z,24.55
2022-10-28T14:26:03.920Z,26.30
2022-10-28T14:28:37.228Z,23.35
2022-10-28T14:31:10.017Z,26.90
2022-10-28T14:33:42.678Z,27.88
2022-10-28T14:36:18.300Z,21.48
2022-10-28T14:39:06.463Z,26.15
2022-10-28T14:41:48.193Z,26.88
2022-10-28T14:44:52.537Z,27.70
2022-10-28T14:47:28.005Z,25.83
2022-10-28T14:50:03.466Z,28.83
2022-10-28T14:52:33.896Z,26.85
2022-10-28T14:55:26.108Z,28.10
2022-10-28T14:57:53.492Z,25.48
2022-10-28T15:00:23.866Z,21.95
2022-10-28T15:02:51.380Z,26.58
2022-10-28T15:05:22.534Z,21.85
2022-10-28T15:07:49.373Z,30.55
2022-10-28T15:10:17.157Z,27.58
2022-10-28T15:12:46.122Z,28.67
2022-10-28T15:15:25.201Z,25.25
2022-10-28T15:17:52.937Z,23.27
2022-10-28T15:20:35.033Z,25.33
2022-10-28T15:23:25.393Z,21.42
2022-10-28T15:26:12.298Z,21.05
2022-10-28T15:28:40.206Z,22.25
2022-10-28T15:31:07.048Z,20.23
2022-10-28T15:33:41.874Z,21.63
2022-10-28T15:36:25.401Z,24.65
2022-10-28T15:39:05.393Z,22.65
2022-10-28T15:41:39.431Z,22.48
2022-10-28T15:46:34.412Z,24.65
2022-10-28T15:49:02.473Z,23.48
2022-10-28T15:51:29.247Z,21.88
2022-10-28T15:54:11.357Z,23.65
2022-10-28T15:56:58.366Z,24.88
2022-10-28T15:59:25.939Z,26.20
2022-10-28T16:01:53.035Z,23.95
2022-10-28T16:04:22.818Z,21.15
2022-10-28T16:06:56.622Z,23.63
2022-10-28T16:09:36.952Z,22.38
2022-10-28T16:12:16.550Z,21.90
